Terminal Aerodrome Forecast
Issued by NWS

Current Version | Previous Version | Graphics & Text | Print | Product List | Glossary On
Versions: 1 2 3 4 5 6 7 8 9 10 11 12 13 14 15 16 17 18 19 20 21
000
FTUS41 KILN 020900 AAA
TAFLUK
TAF AMD
KLUK 020946Z 0210/0306 VRB01KT 1SM BR SCT250
     FM021300 26006KT P6SM FEW070 SCT200
     FM030000 00000KT P6SM SKC=

USA.gov is the U.S. government's official web portal to all federal, state and local government web resources and services.